• Join FlightAware (Why Join?)
  • Login
  • US Flag 
03:24AM EST


 

Airport Tracker/Info


-or-


 

Live Flight TrackerFlight Track Log ✈ RPA4907 ✈ 30-Jun-2013 ✈ KALB - KIAD

Flight Track Log - Related Links

Times and Time Zones

All times are in EDT time to prevent confusion due to time zone crossing. See the RPA4907 flight status page for this flight to view local times or setup timezone preferences in your user account.

Time Position Orientation Groundspeed Altitude Reporting Facility
EDT Latitude Longitude Course Direction KTS MPH feet Rate Location/Type
10:20AM 42.7236 -73.8136 267° West 185 213 1,300  Level Boston Center
10:21AM 42.7206 -73.8900 267° West 216 249 2,900 1,680 Climbing Boston Center
10:22AM 42.7239 -73.9381 275° West 233 268 4,100 1,800 Climbing Boston Center
10:23AM 42.7292 -74.0228 275° West 240 276 6,200 2,040 Climbing Boston Center
10:24AM 42.7358 -74.1333 275° West 240 276 8,600 2,280 Climbing Boston Center
10:25AM 42.7408 -74.2183 275° West 240 276 10,800 2,280 Climbing Boston Center
10:26AM 42.7272 -74.2942 256° West 219 252 13,200 1,980 Climbing Boston Center
10:27AM 42.6950 -74.3497 232° Southwest 194 223 14,800 1,320 Climbing Boston Center
10:28AM 42.6625 -74.4108 234° Southwest 199 229 15,900 960 Climbing Boston Center
10:29AM 42.6261 -74.4775 233° Southwest 212 244 16,800 960 Climbing Boston Center
10:30AM 42.5872 -74.5494 234° Southwest 224 258 17,900 1,020 Climbing Boston Center
10:31AM 42.5483 -74.6214 234° Southwest 235 270 18,900 900 Climbing Boston Center
10:32AM 42.5156 -74.6908 237° Southwest 243 280 19,800 900 Climbing Boston Center
10:33AM 42.4747 -74.7625 232° Southwest 243 280 20,800 960 Climbing Boston Center
10:34AM 42.4378 -74.8342 235° Southwest 243 280 21,800 600 Climbing Boston Center
10:35AM 42.3964 -74.9086 233° Southwest 243 280 22,000 60 Climbing Boston Center
10:36AM 42.3531 -74.9883 234° Southwest 249 287 22,000 -120 Level Boston Center
10:37AM 42.3053 -75.0733 233° Southwest 270 311 21,800 -600 Descending Boston Center
10:38AM 42.2508 -75.1692 233° Southwest 289 333 20,800 -600 Descending Boston Center
10:40AM 42.1381 -75.3714 233° Southwest 333 383 20,000 -300 Descending New York Center
10:41AM 42.0864 -75.4683 234° Southwest 328 377 20,000  Level New York Center
10:42AM 42.0350 -75.5597 233° Southwest 322 371 20,000 -60 Level New York Center
10:43AM 41.9833 -75.6506 233° Southwest 322 371 19,900 -840 Descending New York Center
10:44AM 41.9169 -75.7489 228° Southwest 322 371 18,400 -1,560 Descending New York Center
10:45AM 41.8431 -75.8214 216° Southwest 327 376 16,900 -1,260 Descending New York Center
10:46AM 41.7756 -75.8886 217° Southwest 337 388 16,000 -480 Descending New York Center
10:47AM 41.7036 -75.9608 217° Southwest 337 388 16,000  Level New York Center
10:48AM 41.6272 -76.0408 218° Southwest 331 381 16,000  Level New York Center
10:49AM 41.5575 -76.1131 218° Southwest 331 381 16,000  Level New York Center
10:50AM 41.4875 -76.1850 218° Southwest 325 374 16,000  Level New York Center
10:51AM 41.4242 -76.2492 217° Southwest 325 374 16,000  Level New York Center
10:52AM 41.3456 -76.3256 216° Southwest 325 374 16,000  Level New York Center
10:53AM 41.2778 -76.3972 218° Southwest 325 374 16,000  Level New York Center
10:54AM 41.2056 -76.4658 216° Southwest 325 374 16,000  Level New York Center
10:55AM 41.1442 -76.5294 218° Southwest 325 374 16,000  Level New York Center
10:56AM 41.0719 -76.6006 217° Southwest 325 374 16,000  Level New York Center
10:57AM 40.9972 -76.6794 219° Southwest 325 374 16,000  Level New York Center
10:58AM 40.9358 -76.7400 217° Southwest 320 368 16,000  Level New York Center
10:59AM 40.8656 -76.8106 217° Southwest 320 368 16,000  Level New York Center
11:00AM 40.7867 -76.8858 216° Southwest 320 368 16,000  Level New York Center
11:01AM 40.7103 -76.9119 195° South 315 362 16,000  Level New York Center
11:02AM 40.6153 -76.9389 192° South 320 368 16,000  Level New York Center
11:03AM 40.5389 -76.9622 193° South 320 368 16,000 -120 Level New York Center
11:04AM 40.4456 -76.9919 194° South 320 368 15,800 -840 Descending New York Center
11:06AM 40.2667 -77.0500 194° South 323 372 13,400 -1,140 Descending Potomac TRACON
11:07AM 40.1833 -77.0667 189° South 326 375 12,400 -1,140 Descending Potomac TRACON
11:08AM 40.1000 -77.1167 205° Southwest 323 372 11,300 -1,140 Descending Potomac TRACON
11:09AM 40.0167 -77.1500 197° South 289 333 10,200 -1,140 Descending Potomac TRACON
11:10AM 39.9500 -77.1833 201° Southwest 279 321 9,100 -600 Descending Potomac TRACON
11:11AM 39.8667 -77.2167 197° South 278 320 9,000 -600 Descending Potomac TRACON
11:12AM 39.8000 -77.2500 201° Southwest 271 312 8,000 -960 Descending Potomac TRACON
11:13AM 39.7333 -77.2833 201° Southwest 261 300 7,100 -540 Descending Potomac TRACON
11:14AM 39.6667 -77.3167 201° Southwest 252 290 7,000 -540 Descending Potomac TRACON
11:15AM 39.6000 -77.3667 210° Southwest 270 311 6,100 -540 Descending Potomac TRACON
11:16AM 39.5500 -77.4000 207° Southwest 254 292 6,000 -120 Descending Potomac TRACON
11:17AM 39.4833 -77.4333 201° Southwest 257 296 5,900 -780 Descending Potomac TRACON
11:18AM 39.4000 -77.4333 180° South 260 299 4,500 -960 Descending Potomac TRACON
11:19AM 39.3333 -77.4333 180° South 255 293 4,000 -840 Descending Potomac TRACON
11:20AM 39.2667 -77.4333 180° South 242 278 3,000 -540 Descending Potomac TRACON
11:21AM 39.2167 -77.4333 180° South 224 258 3,000  Level Potomac TRACON
11:22AM 39.1500 -77.4333 180° South 225 259 3,000  Level Potomac TRACON